Aérodrome :
LOGIN :

S'inscrire | Disclaimer

   EN    FR    IT 

 










Légende :    VFR   VFR Marginal   IFR   IFR Intensif   IFR Très Intensif
Visi : 
Plafond : 
>= 8 km
>= 3000ft
5 à 8 km
1000 à 3000 ft
1500m à 5 km
500 à 1000 ft
800 à 1500m
200 à 500 ft
< 800m
< 200 ft
Symboles :   Orages  Brouillard  Fortes neiges  Fortes précipitations  Vent > 20 kt
SIGMETs :   Divers  Orages  Givrage  Turbulence  Onde Orograph.  Cendres Volcan.






- Altitude de l'aérodrome : 796 ft
- Code IATA : SYT


LFLN - Saint-Yan

DERNIER METAR :
  • 242300Z AUTO VRB03KT 3700 BR NSC M00/M01 Q1019

METARs EXPIRÉS :
  • 242230Z AUTO VRB03KT 4100 BR NSC M00/M01 Q1019
  • 242200Z AUTO 04004KT 4300 BR NSC M00/M01 Q1019 BECMG 0500 FG VV///
  • 242130Z AUTO 03004KT 4600 BR NSC 00/M01 Q1019 BECMG 0500 FG VV///
  • 242100Z AUTO 02002KT 5000 BR NSC 00/M01 Q1019 BECMG 0500 FG VV///
  • 242030Z AUTO 03004KT 350V060 5000 BR NSC 01/M01 Q1019 BECMG 0500 FG VV///

TAF TAF LFLN
Valide du 24 à 18h jusqu'au 25 à 03h UTC


241700Z 2418/2503 06006KT CAVOK
BECMG 2418/2421 3000 BR
BECMG 2421/2424 0500 FG VV///
TEMPO 2500/2503 0200 FZFG



MET'MAP, la Météo Aéronautique d'un coup d'oeil ! - Copyright ORBIFLY Décembre 2007 - Disclaimer

ORBIFLY MET'MAP TEAM :

Programmation & Développement : Alexandra Zaïnal
Sur une idée originale de : Baudouin d'Aumeries
Assistance à la programmation : Marc-Olivier Méhu
Soutien technique & logistique : Manuel Goepfert

Contact : metmap@orbifly.com




SOURCES & CREDITS :

   NOAA